sensor_id;sensor_type;location;lat;lon;timestamp;pressure;altitude;pressure_sealevel;temperature;humidity
59939;BME280;45801;51.810;19.444;2023-07-31T00:01:00;98561.44;;;19.02;71.53
59939;BME280;45801;51.810;19.444;2023-07-31T00:03:27;98560.55;;;19.09;71.83
59939;BME280;45801;51.810;19.444;2023-07-31T00:05:54;98558.77;;;19.14;71.54
59939;BME280;45801;51.810;19.444;2023-07-31T00:08:20;98561.42;;;19.17;71.59
59939;BME280;45801;51.810;19.444;2023-07-31T00:10:46;98563.52;;;19.24;71.74
59939;BME280;45801;51.810;19.444;2023-07-31T00:13:13;98561.90;;;19.31;71.41
59939;BME280;45801;51.810;19.444;2023-07-31T00:15:39;98562.27;;;19.30;71.48
59939;BME280;45801;51.810;19.444;2023-07-31T00:18:06;98570.80;;;19.28;71.36
59939;BME280;45801;51.810;19.444;2023-07-31T00:20:32;98573.11;;;19.25;71.58
59939;BME280;45801;51.810;19.444;2023-07-31T00:22:59;98574.01;;;19.20;71.72
59939;BME280;45801;51.810;19.444;2023-07-31T00:25:25;98577.74;;;19.15;71.95
59939;BME280;45801;51.810;19.444;2023-07-31T00:27:51;98579.89;;;19.10;72.55
59939;BME280;45801;51.810;19.444;2023-07-31T00:30:18;98581.67;;;19.05;72.77
59939;BME280;45801;51.810;19.444;2023-07-31T00:32:44;98585.05;;;19.01;72.88
59939;BME280;45801;51.810;19.444;2023-07-31T00:35:11;98585.41;;;18.97;72.71
59939;BME280;45801;51.810;19.444;2023-07-31T00:37:37;98584.52;;;18.96;73.08
59939;BME280;45801;51.810;19.444;2023-07-31T00:40:04;98585.59;;;18.92;73.24
59939;BME280;45801;51.810;19.444;2023-07-31T00:42:31;98585.76;;;18.89;73.29
59939;BME280;45801;51.810;19.444;2023-07-31T00:44:57;98583.98;;;18.87;73.30
59939;BME280;45801;51.810;19.444;2023-07-31T00:47:24;98583.61;;;18.85;73.43
59939;BME280;45801;51.810;19.444;2023-07-31T00:49:51;98582.89;;;18.84;73.51
59939;BME280;45801;51.810;19.444;2023-07-31T00:52:18;98579.52;;;18.80;74.02
59939;BME280;45801;51.810;19.444;2023-07-31T00:54:45;98585.19;;;18.75;74.05
59939;BME280;45801;51.810;19.444;2023-07-31T00:57:12;98589.45;;;18.70;74.59
59939;BME280;45801;51.810;19.444;2023-07-31T00:59:38;98594.24;;;18.66;74.69
59939;BME280;45801;51.810;19.444;2023-07-31T01:02:05;98596.19;;;18.64;74.67
59939;BME280;45801;51.810;19.444;2023-07-31T01:04:32;98597.61;;;18.62;75.19
59939;BME280;45801;51.810;19.444;2023-07-31T01:07:11;98601.67;;;18.61;74.85
59939;BME280;45801;51.810;19.444;2023-07-31T01:10:00;98603.29;;;18.58;75.20
59939;BME280;45801;51.810;19.444;2023-07-31T01:12:30;98608.95;;;18.54;75.22
59939;BME280;45801;51.810;19.444;2023-07-31T01:15:08;98610.36;;;18.52;74.66
59939;BME280;45801;51.810;19.444;2023-07-31T01:17:38;98609.84;;;18.50;75.03
59939;BME280;45801;51.810;19.444;2023-07-31T01:20:15;98610.54;;;18.48;74.42
59939;BME280;45801;51.810;19.444;2023-07-31T01:28:40;98611.60;;;18.41;74.81
59939;BME280;45801;51.810;19.444;2023-07-31T01:31:10;98614.07;;;18.39;74.40
59939;BME280;45801;51.810;19.444;2023-07-31T01:33:39;98610.52;;;18.37;74.39
59939;BME280;45801;51.810;19.444;2023-07-31T01:36:06;98609.63;;;18.35;74.81
59939;BME280;45801;51.810;19.444;2023-07-31T01:38:34;98608.38;;;18.33;74.60
59939;BME280;45801;51.810;19.444;2023-07-31T01:41:01;98612.10;;;18.30;75.08
59939;BME280;45801;51.810;19.444;2023-07-31T01:43:27;98612.79;;;18.27;74.58
59939;BME280;45801;51.810;19.444;2023-07-31T01:45:54;98611.20;;;18.26;74.72
59939;BME280;45801;51.810;19.444;2023-07-31T01:48:20;98608.36;;;18.24;74.68
59939;BME280;45801;51.810;19.444;2023-07-31T01:50:47;98609.42;;;18.23;74.95
59939;BME280;45801;51.810;19.444;2023-07-31T01:53:15;98609.59;;;18.20;75.03
59939;BME280;45801;51.810;19.444;2023-07-31T01:55:41;98608.52;;;18.16;75.11
59939;BME280;45801;51.810;19.444;2023-07-31T01:58:08;98606.21;;;18.14;74.79
59939;BME280;45801;51.810;19.444;2023-07-31T02:00:34;98609.04;;;18.10;75.11
59939;BME280;45801;51.810;19.444;2023-07-31T02:03:01;98613.63;;;18.08;75.08
59939;BME280;45801;51.810;19.444;2023-07-31T02:05:27;98619.30;;;18.05;75.01
59939;BME280;45801;51.810;19.444;2023-07-31T02:07:54;98620.89;;;18.03;74.98
59939;BME280;45801;51.810;19.444;2023-07-31T02:10:20;98623.02;;;18.02;75.17
59939;BME280;45801;51.810;19.444;2023-07-31T02:12:47;98620.36;;;18.01;75.05
59939;BME280;45801;51.810;19.444;2023-07-31T02:15:13;98622.11;;;17.99;74.58
59939;BME280;45801;51.810;19.444;2023-07-31T02:17:40;98617.14;;;17.98;74.44
59939;BME280;45801;51.810;19.444;2023-07-31T02:20:07;98620.16;;;17.98;74.35
59939;BME280;45801;51.810;19.444;2023-07-31T02:22:33;98626.71;;;17.98;73.77
59939;BME280;45801;51.810;19.444;2023-07-31T02:25:00;98624.77;;;17.99;73.83
59939;BME280;45801;51.810;19.444;2023-07-31T02:27:26;98622.66;;;18.00;73.20
59939;BME280;45801;51.810;19.444;2023-07-31T02:29:54;98625.14;;;18.02;73.42
59939;BME280;45801;51.810;19.444;2023-07-31T02:32:21;98624.60;;;17.99;73.48
59939;BME280;45801;51.810;19.444;2023-07-31T02:34:47;98622.98;;;17.98;73.43
59939;BME280;45801;51.810;19.444;2023-07-31T02:37:15;98619.79;;;17.96;73.99
59939;BME280;45801;51.810;19.444;2023-07-31T02:39:41;98620.67;;;17.94;73.66
59939;BME280;45801;51.810;19.444;2023-07-31T02:42:08;98624.03;;;17.92;73.77
59939;BME280;45801;51.810;19.444;2023-07-31T02:44:34;98627.39;;;17.91;73.75
59939;BME280;45801;51.810;19.444;2023-07-31T02:47:01;98626.50;;;17.91;74.02
59939;BME280;45801;51.810;19.444;2023-07-31T02:49:29;98625.09;;;17.92;73.94
59939;BME280;45801;51.810;19.444;2023-07-31T02:51:55;98625.27;;;17.92;73.79
59939;BME280;45801;51.810;19.444;2023-07-31T02:54:22;98622.08;;;17.93;73.82
59939;BME280;45801;51.810;19.444;2023-07-31T02:56:48;98620.65;;;17.91;73.92
59939;BME280;45801;51.810;19.444;2023-07-31T02:59:15;98623.66;;;17.90;74.19
59939;BME280;45801;51.810;19.444;2023-07-31T03:01:41;98623.29;;;17.89;74.18
59939;BME280;45801;51.810;19.444;2023-07-31T03:04:07;98622.77;;;17.88;74.42
59939;BME280;45801;51.810;19.444;2023-07-31T03:06:34;98628.76;;;17.86;74.47
59939;BME280;45801;51.810;19.444;2023-07-31T03:09:00;98628.23;;;17.85;74.86
59939;BME280;45801;51.810;19.444;2023-07-31T03:11:27;98634.95;;;17.83;74.98
59939;BME280;45801;51.810;19.444;2023-07-31T03:13:53;98635.45;;;17.80;75.05
59939;BME280;45801;51.810;19.444;2023-07-31T03:16:20;98635.09;;;17.80;74.92
59939;BME280;45801;51.810;19.444;2023-07-31T03:18:46;98636.34;;;17.80;74.77
59939;BME280;45801;51.810;19.444;2023-07-31T03:21:14;98636.16;;;17.79;74.53
59939;BME280;45801;51.810;19.444;2023-07-31T03:23:40;98641.30;;;17.79;74.83
59939;BME280;45801;51.810;19.444;2023-07-31T03:26:07;98643.79;;;17.79;74.89
59939;BME280;45801;51.810;19.444;2023-07-31T03:28:34;98642.19;;;17.79;74.49
59939;BME280;45801;51.810;19.444;2023-07-31T03:31:00;98640.05;;;17.80;74.21
59939;BME280;45801;51.810;19.444;2023-07-31T03:33:27;98642.02;;;17.81;73.96
59939;BME280;45801;51.810;19.444;2023-07-31T03:35:53;98641.67;;;17.81;73.95
59939;BME280;45801;51.810;19.444;2023-07-31T03:38:20;98648.58;;;17.82;74.09
59939;BME280;45801;51.810;19.444;2023-07-31T03:40:46;98652.48;;;17.83;74.10
59939;BME280;45801;51.810;19.444;2023-07-31T03:43:13;98659.02;;;17.82;74.15
59939;BME280;45801;51.810;19.444;2023-07-31T03:45:39;98662.92;;;17.82;74.17
59939;BME280;45801;51.810;19.444;2023-07-31T03:48:06;98668.42;;;17.84;74.27
59939;BME280;45801;51.810;19.444;2023-07-31T03:50:34;98666.13;;;17.85;74.50
59939;BME280;45801;51.810;19.444;2023-07-31T03:53:00;98664.36;;;17.86;74.63
59939;BME280;45801;51.810;19.444;2023-07-31T03:55:27;98663.14;;;17.86;74.29
59939;BME280;45801;51.810;19.444;2023-07-31T03:57:53;98666.31;;;17.86;74.15
59939;BME280;45801;51.810;19.444;2023-07-31T04:00:19;98665.42;;;17.86;74.24
59939;BME280;45801;51.810;19.444;2023-07-31T04:02:46;98668.61;;;17.85;74.40
59939;BME280;45801;51.810;19.444;2023-07-31T04:05:13;98671.98;;;17.87;74.34
59939;BME280;45801;51.810;19.444;2023-07-31T04:07:39;98667.20;;;17.86;74.10
59939;BME280;45801;51.810;19.444;2023-07-31T04:10:06;98665.97;;;17.87;74.21
59939;BME280;45801;51.810;19.444;2023-07-31T04:12:33;98670.57;;;17.87;74.13
59939;BME280;45801;51.810;19.444;2023-07-31T04:14:59;98673.95;;;17.87;74.50
59939;BME280;45801;51.810;19.444;2023-07-31T04:17:25;98672.16;;;17.87;74.15
59939;BME280;45801;51.810;19.444;2023-07-31T04:19:52;98670.22;;;17.87;74.10
59939;BME280;45801;51.810;19.444;2023-07-31T04:22:18;98666.85;;;17.88;74.24
59939;BME280;45801;51.810;19.444;2023-07-31T04:24:45;98664.03;;;17.89;74.15
59939;BME280;45801;51.810;19.444;2023-07-31T04:27:11;98666.51;;;17.88;74.11
59939;BME280;45801;51.810;19.444;2023-07-31T04:29:37;98668.09;;;17.87;73.92
59939;BME280;45801;51.810;19.444;2023-07-31T04:32:06;98670.95;;;17.88;73.68
59939;BME280;45801;51.810;19.444;2023-07-31T04:34:32;98668.27;;;17.88;73.77
59939;BME280;45801;51.810;19.444;2023-07-31T04:36:59;98670.40;;;17.89;74.04
59939;BME280;45801;51.810;19.444;2023-07-31T04:39:25;98674.12;;;17.89;73.93
59939;BME280;45801;51.810;19.444;2023-07-31T04:41:51;98678.03;;;17.89;73.63
59939;BME280;45801;51.810;19.444;2023-07-31T04:44:18;98677.67;;;17.89;73.63
59939;BME280;45801;51.810;19.444;2023-07-31T04:46:44;98677.68;;;17.89;73.61
59939;BME280;45801;51.810;19.444;2023-07-31T04:49:11;98680.86;;;17.89;73.64
59939;BME280;45801;51.810;19.444;2023-07-31T04:51:38;98678.91;;;17.88;73.55
59939;BME280;45801;51.810;19.444;2023-07-31T04:54:04;98682.27;;;17.87;73.19
59939;BME280;45801;51.810;19.444;2023-07-31T04:56:31;98684.73;;;17.86;73.22
59939;BME280;45801;51.810;19.444;2023-07-31T04:58:57;98687.75;;;17.86;73.14
59939;BME280;45801;51.810;19.444;2023-07-31T05:01:23;98689.88;;;17.86;73.07
59939;BME280;45801;51.810;19.444;2023-07-31T05:03:50;98692.54;;;17.87;73.21
59939;BME280;45801;51.810;19.444;2023-07-31T05:06:16;98695.39;;;17.88;73.20
59939;BME280;45801;51.810;19.444;2023-07-31T05:08:43;98693.11;;;17.90;73.44
59939;BME280;45801;51.810;19.444;2023-07-31T05:11:09;98693.66;;;17.92;73.10
59939;BME280;45801;51.810;19.444;2023-07-31T05:13:35;98686.39;;;17.93;73.15
59939;BME280;45801;51.810;19.444;2023-07-31T05:16:02;98685.52;;;17.94;73.29
59939;BME280;45801;51.810;19.444;2023-07-31T05:18:28;98685.88;;;17.94;72.65
59939;BME280;45801;51.810;19.444;2023-07-31T05:20:55;98687.46;;;17.94;72.80
59939;BME280;45801;51.810;19.444;2023-07-31T05:23:21;98684.45;;;17.94;72.77
59939;BME280;45801;51.810;19.444;2023-07-31T05:25:47;98686.40;;;17.94;72.66
59939;BME280;45801;51.810;19.444;2023-07-31T05:28:14;98684.10;;;17.94;72.35
59939;BME280;45801;51.810;19.444;2023-07-31T05:30:40;98681.27;;;17.93;72.33
59939;BME280;45801;51.810;19.444;2023-07-31T05:33:07;98688.88;;;17.92;72.31
59939;BME280;45801;51.810;19.444;2023-07-31T05:35:33;98693.63;;;17.89;72.34
59939;BME280;45801;51.810;19.444;2023-07-31T05:37:59;98688.48;;;17.87;72.38
59939;BME280;45801;51.810;19.444;2023-07-31T05:40:26;98687.23;;;17.87;72.40
59939;BME280;45801;51.810;19.444;2023-07-31T05:42:52;98683.86;;;17.86;72.35
59939;BME280;45801;51.810;19.444;2023-07-31T05:45:19;98686.70;;;17.88;72.28
59939;BME280;45801;51.810;19.444;2023-07-31T05:47:45;98684.97;;;17.92;72.48
59939;BME280;45801;51.810;19.444;2023-07-31T05:50:12;98682.89;;;17.98;72.35
59939;BME280;45801;51.810;19.444;2023-07-31T05:52:39;98682.38;;;18.02;72.61
59939;BME280;45801;51.810;19.444;2023-07-31T05:55:06;98684.87;;;18.07;72.24
59939;BME280;45801;51.810;19.444;2023-07-31T05:57:32;98689.15;;;18.10;72.18
59939;BME280;45801;51.810;19.444;2023-07-31T05:59:58;98690.92;;;18.13;72.11
59939;BME280;45801;51.810;19.444;2023-07-31T06:02:25;98694.64;;;18.14;71.66
59939;BME280;45801;51.810;19.444;2023-07-31T06:04:51;98694.12;;;18.15;71.55
59939;BME280;45801;51.810;19.444;2023-07-31T06:07:18;98697.67;;;18.17;71.33
59939;BME280;45801;51.810;19.444;2023-07-31T06:09:45;98700.36;;;18.21;71.47
59939;BME280;45801;51.810;19.444;2023-07-31T06:12:11;98704.45;;;18.25;71.35
59939;BME280;45801;51.810;19.444;2023-07-31T06:14:38;98707.12;;;18.28;71.01
59939;BME280;45801;51.810;19.444;2023-07-31T06:17:05;98703.93;;;18.31;70.89
59939;BME280;45801;51.810;19.444;2023-07-31T06:19:31;98701.98;;;18.32;70.44
59939;BME280;45801;51.810;19.444;2023-07-31T06:21:58;98704.29;;;18.32;70.51
59939;BME280;45801;51.810;19.444;2023-07-31T06:24:24;98702.89;;;18.35;70.08
59939;BME280;45801;51.810;19.444;2023-07-31T06:26:50;98699.52;;;18.36;69.91
59939;BME280;45801;51.810;19.444;2023-07-31T06:29:17;98696.33;;;18.39;70.01
59939;BME280;45801;51.810;19.444;2023-07-31T06:31:43;98701.67;;;18.44;70.27
59939;BME280;45801;51.810;19.444;2023-07-31T06:34:10;98705.59;;;18.51;70.15
59939;BME280;45801;51.810;19.444;2023-07-31T06:36:36;98707.21;;;18.55;69.78
59939;BME280;45801;51.810;19.444;2023-07-31T06:39:03;98705.10;;;18.60;69.75
59939;BME280;45801;51.810;19.444;2023-07-31T06:41:30;98702.62;;;18.62;69.16
59939;BME280;45801;51.810;19.444;2023-07-31T06:43:56;98701.02;;;18.64;69.23
59939;BME280;45801;51.810;19.444;2023-07-31T06:46:23;98704.04;;;18.66;69.46
59939;BME280;45801;51.810;19.444;2023-07-31T06:48:49;98707.05;;;18.66;68.43
59939;BME280;45801;51.810;19.444;2023-07-31T06:51:16;98709.54;;;18.67;68.81
59939;BME280;45801;51.810;19.444;2023-07-31T06:53:42;98708.64;;;18.67;68.27
59939;BME280;45801;51.810;19.444;2023-07-31T06:56:11;98711.66;;;18.69;68.41
59939;BME280;45801;51.810;19.444;2023-07-31T06:58:38;98712.92;;;18.72;68.57
59939;BME280;45801;51.810;19.444;2023-07-31T07:01:04;98717.37;;;18.78;69.03
59939;BME280;45801;51.810;19.444;2023-07-31T07:03:30;98718.63;;;18.83;69.34
59939;BME280;45801;51.810;19.444;2023-07-31T07:05:57;98720.77;;;18.85;68.09
59939;BME280;45801;51.810;19.444;2023-07-31T07:08:24;98716.17;;;18.88;68.44
59939;BME280;45801;51.810;19.444;2023-07-31T07:10:50;98714.60;;;18.94;68.35
59939;BME280;45801;51.810;19.444;2023-07-31T07:13:17;98714.78;;;18.98;67.66
59939;BME280;45801;51.810;19.444;2023-07-31T07:15:51;98715.13;;;19.00;67.10
59939;BME280;45801;51.810;19.444;2023-07-31T07:18:17;98714.25;;;19.00;67.40
59939;BME280;45801;51.810;19.444;2023-07-31T07:20:49;98717.44;;;18.99;66.96
59939;BME280;45801;51.810;19.444;2023-07-31T07:23:16;98718.14;;;18.99;67.28
59939;BME280;45801;51.810;19.444;2023-07-31T07:25:43;98716.90;;;19.02;67.76
59939;BME280;45801;51.810;19.444;2023-07-31T07:28:10;98719.58;;;19.07;67.55
59939;BME280;45801;51.810;19.444;2023-07-31T07:30:36;98717.98;;;19.09;66.62
59939;BME280;45801;51.810;19.444;2023-07-31T07:33:03;98716.20;;;19.10;66.74
59939;BME280;45801;51.810;19.444;2023-07-31T07:35:29;98714.97;;;19.12;66.64
59939;BME280;45801;51.810;19.444;2023-07-31T07:37:56;98716.92;;;19.18;66.85
59939;BME280;45801;51.810;19.444;2023-07-31T07:40:23;98714.63;;;19.26;66.41
59939;BME280;45801;51.810;19.444;2023-07-31T07:42:50;98717.28;;;19.28;63.09
59939;BME280;45801;51.810;19.444;2023-07-31T07:45:16;98712.84;;;19.25;63.34
59939;BME280;45801;51.810;19.444;2023-07-31T07:47:43;98716.21;;;19.27;64.31
59939;BME280;45801;51.810;19.444;2023-07-31T07:50:09;98712.48;;;19.27;64.08
59939;BME280;45801;51.810;19.444;2023-07-31T07:52:36;98712.30;;;19.28;64.15
59939;BME280;45801;51.810;19.444;2023-07-31T07:55:03;98717.46;;;19.29;62.89
59939;BME280;45801;51.810;19.444;2023-07-31T07:57:29;98717.64;;;19.28;62.17
59939;BME280;45801;51.810;19.444;2023-07-31T07:59:56;98720.11;;;19.26;60.64
59939;BME280;45801;51.810;19.444;2023-07-31T08:02:22;98719.58;;;19.25;61.47
59939;BME280;45801;51.810;19.444;2023-07-31T08:04:48;98719.23;;;19.27;62.71
59939;BME280;45801;51.810;19.444;2023-07-31T08:07:15;98718.88;;;19.32;63.80
59939;BME280;45801;51.810;19.444;2023-07-31T08:09:42;98720.11;;;19.39;63.31
59939;BME280;45801;51.810;19.444;2023-07-31T08:12:08;98726.16;;;19.46;63.12
59939;BME280;45801;51.810;19.444;2023-07-31T08:14:35;98732.55;;;19.49;62.68
59939;BME280;45801;51.810;19.444;2023-07-31T08:17:02;98732.20;;;19.53;62.72
59939;BME280;45801;51.810;19.444;2023-07-31T08:19:29;98731.30;;;19.54;61.52
59939;BME280;45801;51.810;19.444;2023-07-31T08:21:55;98731.82;;;19.57;61.21
59939;BME280;45801;51.810;19.444;2023-07-31T08:24:21;98732.18;;;19.58;60.88
59939;BME280;45801;51.810;19.444;2023-07-31T08:26:48;98728.63;;;19.59;61.33
59939;BME280;45801;51.810;19.444;2023-07-31T08:29:14;98730.92;;;19.60;61.26
59939;BME280;45801;51.810;19.444;2023-07-31T08:31:41;98725.95;;;19.60;60.11
59939;BME280;45801;51.810;19.444;2023-07-31T08:34:07;98726.86;;;19.55;58.42
59939;BME280;45801;51.810;19.444;2023-07-31T08:36:33;98725.62;;;19.53;59.08
59939;BME280;45801;51.810;19.444;2023-07-31T08:39:00;98729.52;;;19.52;60.12
59939;BME280;45801;51.810;19.444;2023-07-31T08:41:27;98727.73;;;19.55;61.04
59939;BME280;45801;51.810;19.444;2023-07-31T08:43:54;98720.27;;;19.64;62.23
59939;BME280;45801;51.810;19.444;2023-07-31T08:46:21;98717.95;;;19.74;60.96
59939;BME280;45801;51.810;19.444;2023-07-31T08:48:48;98714.05;;;19.82;61.33
59939;BME280;45801;51.810;19.444;2023-07-31T08:51:14;98715.10;;;19.90;60.21
59939;BME280;45801;51.810;19.444;2023-07-31T08:53:41;98714.91;;;19.92;59.62
59939;BME280;45801;51.810;19.444;2023-07-31T08:56:09;98712.95;;;19.97;61.29
59939;BME280;45801;51.810;19.444;2023-07-31T08:58:36;98707.96;;;20.03;60.48
59939;BME280;45801;51.810;19.444;2023-07-31T09:01:04;98706.87;;;20.09;61.28
59939;BME280;45801;51.810;19.444;2023-07-31T09:03:34;98709.69;;;20.14;59.80
59939;BME280;45801;51.810;19.444;2023-07-31T09:06:02;98708.63;;;20.18;60.11
59939;BME280;45801;51.810;19.444;2023-07-31T09:08:31;98702.91;;;20.21;59.29
59939;BME280;45801;51.810;19.444;2023-07-31T09:11:02;98702.38;;;20.23;59.59
59939;BME280;45801;51.810;19.444;2023-07-31T09:13:30;98703.61;;;20.23;58.85
59939;BME280;45801;51.810;19.444;2023-07-31T09:15:58;98706.45;;;20.26;58.92
59939;BME280;45801;51.810;19.444;2023-07-31T09:18:25;98706.07;;;20.32;60.06
59939;BME280;45801;51.810;19.444;2023-07-31T09:21:05;98703.73;;;20.38;59.63
59939;BME280;45801;51.810;19.444;2023-07-31T09:23:43;98707.26;;;20.42;58.58
59939;BME280;45801;51.810;19.444;2023-07-31T09:26:10;98704.25;;;20.38;56.27
59939;BME280;45801;51.810;19.444;2023-07-31T09:28:37;98703.91;;;20.38;56.08
59939;BME280;45801;51.810;19.444;2023-07-31T09:31:03;98703.56;;;20.37;57.51
59939;BME280;45801;51.810;19.444;2023-07-31T09:33:29;98703.36;;;20.41;58.57
59939;BME280;45801;51.810;19.444;2023-07-31T09:35:58;98705.32;;;20.41;56.80
59939;BME280;45801;51.810;19.444;2023-07-31T09:38:26;98702.83;;;20.41;57.18
59939;BME280;45801;51.810;19.444;2023-07-31T09:40:53;98702.82;;;20.41;57.91
59939;BME280;45801;51.810;19.444;2023-07-31T09:43:21;98707.44;;;20.44;58.08
59939;BME280;45801;51.810;19.444;2023-07-31T09:45:54;98703.52;;;20.45;57.14
59939;BME280;45801;51.810;19.444;2023-07-31T09:48:23;98703.68;;;20.47;57.40
59939;BME280;45801;51.810;19.444;2023-07-31T09:50:53;98701.01;;;20.47;57.33
59939;BME280;45801;51.810;19.444;2023-07-31T09:53:28;98697.63;;;20.50;58.61
59939;BME280;45801;51.810;19.444;2023-07-31T09:55:58;98696.72;;;20.53;58.90
59939;BME280;45801;51.810;19.444;2023-07-31T09:58:28;98694.91;;;20.58;58.69
59939;BME280;45801;51.810;19.444;2023-07-31T10:00:57;98692.56;;;20.63;57.91
59939;BME280;45801;51.810;19.444;2023-07-31T10:03:24;98690.96;;;20.65;56.67
59939;BME280;45801;51.810;19.444;2023-07-31T10:05:53;98692.02;;;20.69;57.42
59939;BME280;45801;51.810;19.444;2023-07-31T10:08:26;98689.53;;;20.71;56.17
59939;BME280;45801;51.810;19.444;2023-07-31T10:10:58;98689.71;;;20.72;56.39
59939;BME280;45801;51.810;19.444;2023-07-31T10:13:27;98683.11;;;20.73;55.82
59939;BME280;45801;51.810;19.444;2023-07-31T10:15:54;98680.77;;;20.77;57.01
59939;BME280;45801;51.810;19.444;2023-07-31T10:18:20;98675.58;;;20.83;57.05
59939;BME280;45801;51.810;19.444;2023-07-31T10:20:47;98670.02;;;20.88;57.15
59939;BME280;45801;51.810;19.444;2023-07-31T10:23:15;98668.73;;;20.94;56.42
59939;BME280;45801;51.810;19.444;2023-07-31T10:25:42;98671.00;;;20.99;56.25
59939;BME280;45801;51.810;19.444;2023-07-31T10:28:11;98671.12;;;21.05;55.77
59939;BME280;45801;51.810;19.444;2023-07-31T10:30:38;98670.39;;;21.10;54.25
59939;BME280;45801;51.810;19.444;2023-07-31T10:33:06;98658.27;;;21.11;54.98
59939;BME280;45801;51.810;19.444;2023-07-31T10:35:33;98653.09;;;21.12;55.48
59939;BME280;45801;51.810;19.444;2023-07-31T10:38:10;98651.30;;;21.12;55.59
59939;BME280;45801;51.810;19.444;2023-07-31T10:40:38;98652.39;;;21.11;55.61
59939;BME280;45801;51.810;19.444;2023-07-31T10:43:05;98648.80;;;21.14;56.95
59939;BME280;45801;51.810;19.444;2023-07-31T10:45:33;98646.30;;;21.15;53.72
59939;BME280;45801;51.810;19.444;2023-07-31T10:48:00;98643.30;;;21.13;53.78
59939;BME280;45801;51.810;19.444;2023-07-31T10:50:29;98644.39;;;21.10;53.34
59939;BME280;45801;51.810;19.444;2023-07-31T10:52:57;98641.41;;;21.04;51.29
59939;BME280;45801;51.810;19.444;2023-07-31T10:55:42;98645.37;;;20.97;51.46
59939;BME280;45801;51.810;19.444;2023-07-31T10:58:13;98644.88;;;20.93;51.68
59939;BME280;45801;51.810;19.444;2023-07-31T11:00:42;98643.30;;;20.92;52.55
59939;BME280;45801;51.810;19.444;2023-07-31T11:08:36;98640.40;;;20.96;54.36
59939;BME280;45801;51.810;19.444;2023-07-31T11:11:08;98640.04;;;20.97;52.46
59939;BME280;45801;51.810;19.444;2023-07-31T11:13:50;98634.84;;;21.01;52.46
59939;BME280;45801;51.810;19.444;2023-07-31T11:16:20;98630.31;;;21.09;53.55
59939;BME280;45801;51.810;19.444;2023-07-31T11:18:48;98631.27;;;21.21;53.89
59939;BME280;45801;51.810;19.444;2023-07-31T11:21:17;98630.65;;;21.32;52.85
59939;BME280;45801;51.810;19.444;2023-07-31T11:23:54;98623.92;;;21.46;53.21
59939;BME280;45801;51.810;19.444;2023-07-31T11:26:23;98618.27;;;21.59;52.67
59939;BME280;45801;51.810;19.444;2023-07-31T11:28:50;98622.79;;;21.71;53.44
59939;BME280;45801;51.810;19.444;2023-07-31T11:31:18;98618.58;;;21.80;51.97
59939;BME280;45801;51.810;19.444;2023-07-31T11:33:44;98620.46;;;21.87;51.17
59939;BME280;45801;51.810;19.444;2023-07-31T11:36:18;98621.62;;;21.95;51.22
59939;BME280;45801;51.810;19.444;2023-07-31T11:38:45;98620.27;;;22.03;50.44
59939;BME280;45801;51.810;19.444;2023-07-31T11:41:14;98615.86;;;22.12;51.43
59939;BME280;45801;51.810;19.444;2023-07-31T11:43:42;98618.81;;;22.19;50.37
59939;BME280;45801;51.810;19.444;2023-07-31T11:46:09;98615.30;;;22.14;49.09
59939;BME280;45801;51.810;19.444;2023-07-31T11:48:37;98612.34;;;22.09;50.05
59939;BME280;45801;51.810;19.444;2023-07-31T11:51:05;98611.71;;;22.03;50.21
59939;BME280;45801;51.810;19.444;2023-07-31T11:53:38;98610.52;;;21.99;51.33
59939;BME280;45801;51.810;19.444;2023-07-31T11:56:09;98606.81;;;21.95;50.56
59939;BME280;45801;51.810;19.444;2023-07-31T11:58:38;98604.23;;;21.88;50.08
59939;BME280;45801;51.810;19.444;2023-07-31T12:01:05;98604.47;;;21.82;50.30
59939;BME280;45801;51.810;19.444;2023-07-31T12:03:32;98601.30;;;21.79;50.94
59939;BME280;45801;51.810;19.444;2023-07-31T12:05:59;98603.64;;;21.77;51.43
59939;BME280;45801;51.810;19.444;2023-07-31T12:08:26;98604.23;;;21.72;50.99
59939;BME280;45801;51.810;19.444;2023-07-31T12:10:53;98595.42;;;21.64;49.75
59939;BME280;45801;51.810;19.444;2023-07-31T12:13:22;98594.39;;;21.60;51.24
59939;BME280;45801;51.810;19.444;2023-07-31T12:15:54;98594.06;;;21.58;51.62
59939;BME280;45801;51.810;19.444;2023-07-31T12:18:22;98590.35;;;21.55;51.46
59939;BME280;45801;51.810;19.444;2023-07-31T12:20:54;98590.75;;;21.51;53.68
59939;BME280;45801;51.810;19.444;2023-07-31T12:23:22;98588.11;;;21.46;52.86
59939;BME280;45801;51.810;19.444;2023-07-31T12:26:03;98584.42;;;21.41;52.58
59939;BME280;45801;51.810;19.444;2023-07-31T12:28:35;98578.75;;;21.37;52.35
59939;BME280;45801;51.810;19.444;2023-07-31T12:31:04;98575.02;;;21.35;52.27
59939;BME280;45801;51.810;19.444;2023-07-31T12:33:35;98578.63;;;21.33;52.40
59939;BME280;45801;51.810;19.444;2023-07-31T12:36:03;98572.63;;;21.28;50.96
59939;BME280;45801;51.810;19.444;2023-07-31T12:38:30;98568.01;;;21.27;51.18
59939;BME280;45801;51.810;19.444;2023-07-31T12:40:57;98566.56;;;21.29;51.40
59939;BME280;45801;51.810;19.444;2023-07-31T12:43:23;98566.52;;;21.32;51.32
59939;BME280;45801;51.810;19.444;2023-07-31T12:45:50;98564.73;;;21.33;51.11
59939;BME280;45801;51.810;19.444;2023-07-31T12:48:16;98563.99;;;21.34;51.15
59939;BME280;45801;51.810;19.444;2023-07-31T12:50:43;98560.81;;;21.33;51.50
59939;BME280;45801;51.810;19.444;2023-07-31T12:53:09;98560.64;;;21.32;51.72
59939;BME280;45801;51.810;19.444;2023-07-31T12:55:36;98559.05;;;21.31;51.38
59939;BME280;45801;51.810;19.444;2023-07-31T12:58:03;98557.10;;;21.30;51.34
59939;BME280;45801;51.810;19.444;2023-07-31T13:00:30;98557.30;;;21.29;51.27
59939;BME280;45801;51.810;19.444;2023-07-31T13:02:56;98554.09;;;21.28;52.00